Time;durP1;ratioP1;P1;durP2;ratioP2;P2;SDS_P1;SDS_P2;PMS_P1;PMS_P2;Temp;Humidity;BMP_temperature;BMP_pressure;BME280_temperature;BME280_humidity;BME280_pressure;Samples;Min_cycle;Max_cycle;Signal;HPM_P1;HPM_P2
2023/01/24 00:01:10;;;;;;;5.90;3.95;;;;;;;4.66;75.24;95788.03;5016777;28;20028;-81
2023/01/24 00:03:35;;;;;;;5.75;3.65;;;;;;;4.56;74.88;95775.63;5016919;28;20032;-81
2023/01/24 00:06:01;;;;;;;5.20;3.50;;;;;;;4.67;76.13;95792.28;5050234;28;20412;-81
2023/01/24 00:08:27;;;;;;;6.45;3.70;;;;;;;4.73;75.57;95788.59;5016234;28;20036;-81
2023/01/24 00:11:02;;;;;;;7.30;3.85;;;;;;;4.70;75.12;95770.72;5029803;28;20083;-81
2023/01/24 00:13:28;;;;;;;7.95;4.05;;;;;;;4.64;74.68;95765.84;5031447;28;20068;-81
2023/01/24 00:16:06;;;;;;;5.57;3.80;;;;;;;4.85;73.25;95784.66;5016795;28;20068;-81
2023/01/24 00:18:32;;;;;;;5.38;3.65;;;;;;;4.83;72.34;95778.72;5038183;28;20048;-81
2023/01/24 00:21:03;;;;;;;6.85;3.95;;;;;;;4.72;72.56;95775.81;5029789;28;20033;-81
2023/01/24 00:23:28;;;;;;;6.75;3.30;;;;;;;4.72;72.02;95776.63;5039524;28;20037;-81
2023/01/24 00:25:53;;;;;;;6.32;4.05;;;;;;;4.63;73.02;95795.06;5032800;28;20034;-80
2023/01/24 00:28:19;;;;;;;6.28;3.95;;;;;;;4.78;72.61;95796.13;5029551;28;20030;-81
2023/01/24 00:30:44;;;;;;;6.18;3.58;;;;;;;4.62;72.20;95775.34;5023773;28;20033;-81
2023/01/24 00:33:10;;;;;;;6.38;3.53;;;;;;;4.72;72.91;95783.53;5031561;28;20103;-81
2023/01/24 00:35:35;;;;;;;6.47;3.55;;;;;;;4.78;72.13;95791.81;5033033;28;20410;-81
2023/01/24 00:38:01;;;;;;;6.22;3.50;;;;;;;4.60;71.68;95766.91;5049485;28;20033;-81
2023/01/24 00:40:26;;;;;;;7.80;4.10;;;;;;;4.48;72.65;95769.09;5048644;28;20037;-81
2023/01/24 00:42:52;;;;;;;6.43;3.92;;;;;;;4.28;73.47;95787.13;5045783;28;20033;-81
2023/01/24 00:45:17;;;;;;;7.30;4.43;;;;;;;4.40;73.89;95796.03;5033474;28;20034;-81
2023/01/24 00:47:43;;;;;;;8.85;4.20;;;;;;;4.12;73.71;95784.34;5034818;28;20038;-81
2023/01/24 00:50:09;;;;;;;7.97;4.53;;;;;;;4.37;73.00;95791.88;5051740;28;20029;-81
2023/01/24 00:52:34;;;;;;;6.80;3.92;;;;;;;4.32;73.07;95793.81;5020361;28;20491;-81
2023/01/24 00:55:00;;;;;;;6.20;3.92;;;;;;;4.30;73.35;95780.19;5053414;28;20114;-81
2023/01/24 00:57:25;;;;;;;6.90;4.03;;;;;;;4.37;73.01;95798.75;5053173;28;20036;-81
2023/01/24 00:59:51;;;;;;;6.78;4.07;;;;;;;4.43;72.85;95801.91;5035650;28;20430;-81
2023/01/24 01:02:16;;;;;;;7.15;3.80;;;;;;;4.24;73.38;95786.44;5020071;28;20071;-81
2023/01/24 01:04:42;;;;;;;9.15;4.00;;;;;;;4.23;73.05;95796.75;5036334;28;20033;-81
2023/01/24 01:07:07;;;;;;;7.20;3.72;;;;;;;4.35;73.10;95792.84;5019793;28;20044;-81
2023/01/24 01:09:33;;;;;;;6.85;4.03;;;;;;;4.34;72.97;95796.31;5041365;28;20431;-81
2023/01/24 01:11:58;;;;;;;9.73;4.20;;;;;;;4.32;72.50;95783.53;5013145;28;20033;-81
2023/01/24 01:14:24;;;;;;;7.63;3.90;;;;;;;4.42;72.36;95795.06;5034157;28;20483;-81
2023/01/24 01:16:49;;;;;;;7.45;4.32;;;;;;;4.21;72.55;95780.59;5035460;28;20465;-81
2023/01/24 01:19:14;;;;;;;7.88;4.07;;;;;;;4.35;72.69;95798.00;5051803;28;20488;-81
2023/01/24 01:21:44;;;;;;;9.48;4.43;;;;;;;4.23;72.16;95764.19;5004251;28;20048;-81
2023/01/24 01:24:09;;;;;;;8.57;4.07;;;;;;;4.19;72.95;95788.34;5017553;28;20049;-81
2023/01/24 01:26:35;;;;;;;8.30;4.35;;;;;;;4.24;73.02;95803.59;5017437;28;20041;-80
2023/01/24 01:29:00;;;;;;;8.30;4.13;;;;;;;4.18;73.59;95801.25;5036208;28;20045;-81
2023/01/24 01:31:26;;;;;;;8.32;4.40;;;;;;;4.17;73.36;95787.56;5052752;28;20028;-79
2023/01/24 01:33:51;;;;;;;7.88;4.05;;;;;;;4.19;73.42;95808.94;5032002;28;20037;-80
2023/01/24 01:36:17;;;;;;;7.97;4.40;;;;;;;4.25;72.48;95802.69;5002079;28;20037;-81
2023/01/24 01:38:42;;;;;;;8.27;4.55;;;;;;;4.27;72.32;95811.19;5016160;28;20103;-81
2023/01/24 01:41:08;;;;;;;8.25;4.15;;;;;;;3.86;72.56;95788.00;5029784;28;20073;-80
2023/01/24 01:43:34;;;;;;;8.57;4.28;;;;;;;4.01;72.87;95802.81;5032570;28;20029;-80
2023/01/24 01:46:17;;;;;;;8.25;4.28;;;;;;;3.92;73.32;95805.75;5009890;28;20525;-81
2023/01/24 01:48:50;;;;;;;6.10;3.85;;;;;;;3.91;73.47;95801.53;5035883;28;20039;-81
2023/01/24 01:51:17;;;;;;;5.82;3.60;;;;;;;3.93;73.42;95799.72;5033673;28;20539;-80
2023/01/24 01:54:16;;;;;;;8.38;4.45;;;;;;;3.77;73.96;95788.41;5051462;28;20098;-81
2023/01/24 01:56:42;;;;;;;9.52;4.25;;;;;;;3.75;74.68;95790.19;5025493;28;20518;-81
2023/01/24 01:59:19;;;;;;;7.65;4.53;;;;;;;3.87;74.29;95781.97;5032219;28;20078;-80
2023/01/24 02:01:45;;;;;;;7.72;4.00;;;;;;;3.99;73.34;95803.78;5032861;28;20029;-81
2023/01/24 02:04:14;;;;;;;6.80;3.70;;;;;;;3.95;73.54;95803.06;5041898;28;20024;-80
2023/01/24 02:06:59;;;;;;;7.22;4.10;;;;;;;3.81;73.88;95801.03;5052016;28;20605;-80
2023/01/24 02:09:28;;;;;;;6.45;3.92;;;;;;;3.98;73.73;95794.38;5050662;28;20128;-81
2023/01/24 02:11:54;;;;;;;8.00;4.57;;;;;;;3.98;73.35;95797.81;5031833;28;20068;-80
2023/01/24 02:17:04;;;;;;;7.63;3.92;;;;;;;3.93;73.31;95773.19;5052083;28;20032;-81
2023/01/24 02:19:54;;;;;;;6.75;4.07;;;;;;;4.01;72.55;95795.13;5015163;28;20038;-81
2023/01/24 02:22:23;;;;;;;6.05;3.55;;;;;;;3.97;72.99;95787.56;5041793;28;20033;-81
2023/01/24 02:24:58;;;;;;;7.30;3.85;;;;;;;3.89;73.51;95781.91;5040348;28;20092;-81
2023/01/24 02:27:23;;;;;;;4.97;3.60;;;;;;;3.88;73.25;95788.78;4999628;28;20041;-81
2023/01/24 02:29:49;;;;;;;5.88;3.50;;;;;;;3.79;73.31;95774.59;5031736;28;20022;-81
2023/01/24 02:32:17;;;;;;;6.47;3.90;;;;;;;3.84;73.63;95787.22;5018600;28;20029;-81
2023/01/24 02:34:42;;;;;;;5.57;3.38;;;;;;;3.98;72.60;95790.09;5034033;28;20033;-81
2023/01/24 02:37:10;;;;;;;6.03;3.45;;;;;;;3.97;72.67;95788.41;5031559;28;20040;-81
2023/01/24 02:39:42;;;;;;;4.97;3.20;;;;;;;4.05;72.64;95797.56;5015168;28;20022;-81
2023/01/24 02:42:10;;;;;;;5.13;3.25;;;;;;;3.99;72.16;95801.22;5052642;28;20017;-81
2023/01/24 02:44:42;;;;;;;5.00;3.17;;;;;;;3.74;72.04;95786.78;5034804;28;20045;-81
2023/01/24 02:47:07;;;;;;;6.65;3.53;;;;;;;3.84;72.57;95791.53;5035466;28;20029;-81
2023/01/24 02:49:33;;;;;;;7.55;3.60;;;;;;;3.88;72.80;95793.94;5050217;28;20099;-81
2023/01/24 02:54:42;;;;;;;5.97;3.47;;;;;;;3.91;73.00;95788.66;5050461;28;20457;-81
2023/01/24 02:59:51;;;;;;;4.75;2.85;;;;;;;4.00;71.94;95779.72;5036203;28;20071;-81
2023/01/24 03:02:17;;;;;;;4.45;3.03;;;;;;;3.99;72.22;95778.91;5052151;28;20024;-81
2023/01/24 03:04:42;;;;;;;5.25;3.35;;;;;;;3.95;72.04;95774.78;5017967;28;20044;-81
2023/01/24 03:07:08;;;;;;;5.78;3.50;;;;;;;3.91;71.97;95780.94;5032104;28;20115;-81
2023/01/24 03:09:38;;;;;;;5.40;3.53;;;;;;;3.88;72.14;95782.81;5031039;28;20033;-81
2023/01/24 03:36:41;;;;;;;3.80;2.70;;;;;;;3.64;72.73;95782.06;5049597;28;20134;-81
2023/01/24 03:41:50;;;;;;;5.05;3.40;;;;;;;3.77;72.45;95763.53;5016672;28;20099;-81
2023/01/24 03:44:16;;;;;;;5.35;3.42;;;;;;;3.46;73.13;95781.91;5036108;28;20462;-81
2023/01/24 03:46:41;;;;;;;5.70;3.65;;;;;;;3.47;73.09;95763.03;5033442;28;20032;-82
2023/01/24 03:49:07;;;;;;;5.75;3.58;;;;;;;3.75;72.92;95778.16;5013427;28;20034;-81
2023/01/24 03:54:16;;;;;;;4.75;3.13;;;;;;;3.60;71.64;95750.53;5031226;28;20071;-81
2023/01/24 03:56:42;;;;;;;4.10;3.08;;;;;;;3.60;72.30;95762.56;5030143;28;20030;-82
2023/01/24 03:59:07;;;;;;;5.93;3.70;;;;;;;3.63;72.19;95763.25;5013746;28;20041;-81
2023/01/24 04:01:33;;;;;;;4.50;2.92;;;;;;;3.74;72.23;95767.97;5016548;28;20028;-82
2023/01/24 04:03:58;;;;;;;4.97;3.28;;;;;;;3.56;72.73;95772.94;5012289;28;20052;-82
2023/01/24 04:06:24;;;;;;;4.95;3.42;;;;;;;3.62;72.97;95776.16;5006340;28;20024;-82
2023/01/24 04:08:50;;;;;;;4.65;3.45;;;;;;;3.75;72.86;95767.06;5020886;28;20037;-82
2023/01/24 04:11:16;;;;;;;4.43;3.40;;;;;;;3.84;72.54;95770.97;5027447;28;20037;-81
2023/01/24 04:13:42;;;;;;;6.88;3.55;;;;;;;3.80;72.71;95767.72;5029276;28;20167;-82
2023/01/24 04:16:08;;;;;;;4.85;3.15;;;;;;;3.74;72.24;95753.38;5013003;28;20108;-81
2023/01/24 04:18:33;;;;;;;4.47;3.30;;;;;;;3.84;71.44;95753.81;5037949;28;20037;-81
2023/01/24 04:21:05;;;;;;;4.15;3.17;;;;;;;3.48;71.84;95758.72;5032249;28;20025;-81
2023/01/24 04:23:30;;;;;;;5.15;3.55;;;;;;;3.51;72.41;95759.44;5015793;28;20479;-81
2023/01/24 04:25:59;;;;;;;5.03;3.17;;;;;;;3.41;72.59;95762.44;4997229;28;20052;-81
2023/01/24 04:28:25;;;;;;;4.78;3.28;;;;;;;3.31;72.67;95769.66;5013487;28;20534;-80
2023/01/24 04:30:59;;;;;;;6.18;3.75;;;;;;;2.98;73.98;95743.56;4996664;28;20026;-81
2023/01/24 04:33:24;;;;;;;5.18;3.53;;;;;;;3.08;73.81;95744.88;5009497;28;20422;-81
2023/01/24 04:35:50;;;;;;;5.05;3.17;;;;;;;3.27;72.96;95748.41;5029535;28;20025;-80
2023/01/24 04:38:15;;;;;;;4.70;3.22;;;;;;;3.33;73.21;95765.31;5028611;28;20025;-81
2023/01/24 04:40:41;;;;;;;5.20;3.63;;;;;;;3.42;73.34;95769.25;5030783;28;20034;-81
2023/01/24 04:43:06;;;;;;;5.55;3.45;;;;;;;3.61;72.35;95759.06;5029253;28;20479;-81
2023/01/24 04:45:32;;;;;;;6.53;3.95;;;;;;;3.29;72.46;95753.50;5012761;28;20400;-81
2023/01/24 04:47:57;;;;;;;4.95;3.40;;;;;;;3.24;72.75;95756.22;5026271;28;20091;-81
2023/01/24 04:50:23;;;;;;;6.07;3.85;;;;;;;3.26;72.64;95763.88;5013081;28;20041;-81
2023/01/24 04:52:48;;;;;;;4.45;3.08;;;;;;;3.39;72.80;95765.06;5012333;28;20507;-81
2023/01/24 04:55:14;;;;;;;5.55;3.90;;;;;;;3.21;72.72;95755.53;5028157;28;20136;-81
2023/01/24 04:57:39;;;;;;;5.65;3.53;;;;;;;3.22;72.80;95777.72;5026833;28;20526;-81
2023/01/24 05:00:07;;;;;;;4.82;3.45;;;;;;;3.06;73.08;95752.63;5028850;28;20044;-81
2023/01/24 05:02:33;;;;;;;4.72;3.40;;;;;;;2.87;73.34;95778.19;5029112;28;20064;-81
2023/01/24 05:04:58;;;;;;;10.45;5.85;;;;;;;3.12;73.90;95778.09;5045407;28;20043;-79
2023/01/24 05:07:24;;;;;;;8.52;5.57;;;;;;;3.05;73.82;95779.22;5043218;28;20037;-81
2023/01/24 05:09:49;;;;;;;7.85;5.47;;;;;;;2.93;73.86;95758.31;5028869;28;20025;-81
2023/01/24 05:12:15;;;;;;;5.00;3.90;;;;;;;3.17;73.28;95777.91;5046771;28;20083;-81
2023/01/24 05:14:40;;;;;;;6.30;4.32;;;;;;;3.13;74.09;95778.94;5012544;28;20049;-81
2023/01/24 05:17:06;;;;;;;6.22;4.18;;;;;;;3.08;73.81;95776.53;5043957;28;20033;-81
2023/01/24 05:19:31;;;;;;;5.40;3.55;;;;;;;3.11;73.57;95796.13;5028297;28;20025;-81
2023/01/24 05:21:57;;;;;;;4.82;3.53;;;;;;;2.99;73.62;95789.72;5028078;28;20044;-81
2023/01/24 05:24:22;;;;;;;5.80;3.60;;;;;;;2.91;73.62;95781.47;5012103;28;20036;-81
2023/01/24 05:26:48;;;;;;;4.93;3.53;;;;;;;3.01;74.37;95812.75;5044650;28;20067;-81
2023/01/24 05:29:13;;;;;;;4.75;3.80;;;;;;;3.14;73.82;95817.38;5026428;28;20096;-80
2023/01/24 05:31:39;;;;;;;4.57;3.30;;;;;;;2.80;74.57;95811.81;5047910;28;20052;-80
2023/01/24 05:34:05;;;;;;;5.47;4.07;;;;;;;2.92;73.77;95806.22;5032042;28;20029;-80
2023/01/24 05:36:30;;;;;;;6.22;4.10;;;;;;;3.05;73.82;95817.72;5046932;28;20036;-79
2023/01/24 05:38:56;;;;;;;4.80;3.70;;;;;;;2.85;74.36;95809.94;5014244;28;20468;-81
2023/01/24 05:41:21;;;;;;;6.30;4.50;;;;;;;3.04;74.49;95816.06;5031487;28;20044;-81
2023/01/24 05:43:47;;;;;;;9.82;6.68;;;;;;;3.07;74.13;95821.06;5031991;28;20416;-81
2023/01/24 05:46:14;;;;;;;7.65;5.55;;;;;;;2.95;73.98;95803.53;5015190;28;20525;-80
2023/01/24 05:48:41;;;;;;;5.28;3.88;;;;;;;3.32;73.75;95825.28;5029925;28;20098;-81
2023/01/24 05:51:08;;;;;;;5.55;4.15;;;;;;;3.25;74.07;95821.28;5025591;28;20033;-81
2023/01/24 05:53:35;;;;;;;6.68;4.28;;;;;;;3.04;73.04;95769.84;5025520;28;20017;-81
2023/01/24 05:56:03;;;;;;;5.68;3.72;;;;;;;3.26;73.43;95831.50;5012759;28;20123;-81
2023/01/24 05:58:29;;;;;;;6.97;4.78;;;;;;;3.33;73.67;95826.94;5010807;28;20041;-81
2023/01/24 06:00:55;;;;;;;11.50;6.38;;;;;;;3.22;73.42;95827.34;5027872;28;20553;-81
2023/01/24 06:03:21;;;;;;;6.15;4.63;;;;;;;3.33;73.40;95837.22;5028641;28;20029;-81
2023/01/24 06:05:54;;;;;;;5.13;3.88;;;;;;;3.34;73.11;95849.16;5027783;28;20095;-81
2023/01/24 06:08:19;;;;;;;7.93;5.10;;;;;;;3.42;72.79;95846.31;5044440;28;20025;-81
2023/01/24 06:10:45;;;;;;;9.63;6.70;;;;;;;3.35;73.04;95851.69;5026250;28;20037;-79
2023/01/24 06:13:11;;;;;;;6.35;4.30;;;;;;;3.22;73.20;95842.75;5031455;28;20084;-81
2023/01/24 06:15:36;;;;;;;6.07;4.40;;;;;;;3.07;73.91;95843.34;5045479;28;20026;-80
2023/01/24 06:18:07;;;;;;;5.63;3.83;;;;;;;3.17;73.68;95849.78;5029541;28;20027;-81
2023/01/24 06:20:33;;;;;;;8.13;4.60;;;;;;;3.22;73.52;95841.94;5032519;28;20037;-81
2023/01/24 06:23:03;;;;;;;5.78;3.97;;;;;;;3.18;73.19;95855.78;5030637;28;20033;-81
2023/01/24 06:25:29;;;;;;;8.55;5.13;;;;;;;3.23;72.94;95866.72;5011773;28;20069;-80
2023/01/24 06:27:55;;;;;;;5.60;3.88;;;;;;;3.28;72.57;95872.50;5046698;28;20029;-81
2023/01/24 06:30:20;;;;;;;7.10;4.15;;;;;;;3.20;72.69;95871.97;5045861;28;20032;-80
2023/01/24 06:33:13;;;;;;;6.35;4.38;;;;;;;3.12;73.53;95875.66;5045400;28;20032;-80
2023/01/24 06:36:12;;;;;;;8.00;4.40;;;;;;;3.08;74.07;95876.66;5047606;28;20048;-81
2023/01/24 06:38:38;;;;;;;8.38;5.60;;;;;;;3.18;74.02;95879.75;5045312;28;20454;-81
2023/01/24 06:41:04;;;;;;;8.50;5.57;;;;;;;3.27;73.27;95868.28;5007796;28;20033;-84
2023/01/24 06:43:30;;;;;;;9.50;6.05;;;;;;;3.25;72.50;95882.91;5024318;28;20111;-77
2023/01/24 06:45:58;;;;;;;11.05;5.75;;;;;;;3.20;71.77;95872.78;5012144;28;20453;-76
2023/01/24 06:48:24;;;;;;;15.00;6.50;;;;;;;3.22;72.22;95871.00;5025358;28;20037;-77
2023/01/24 06:50:49;;;;;;;9.18;5.30;;;;;;;3.27;72.46;95886.25;5027705;28;20040;-78
2023/01/24 06:53:15;;;;;;;6.80;4.20;;;;;;;3.30;71.29;95889.53;5046402;28;20056;-78
2023/01/24 06:55:44;;;;;;;7.25;4.05;;;;;;;3.20;71.76;95867.66;5014436;28;20033;-79
2023/01/24 06:58:10;;;;;;;35.28;14.57;;;;;;;3.33;72.30;95881.72;5013136;28;20032;-78
2023/01/24 07:00:35;;;;;;;33.85;13.23;;;;;;;3.34;71.94;95872.28;5014425;28;20036;-78
2023/01/24 07:03:02;;;;;;;24.23;11.35;;;;;;;3.36;71.57;95871.31;5026546;28;20067;-79
2023/01/24 07:05:28;;;;;;;81.72;30.58;;;;;;;3.63;71.44;95891.75;5030638;28;20146;-78
2023/01/24 07:07:56;;;;;;;32.95;14.00;;;;;;;3.44;72.11;95894.16;5025931;28;20123;-80
2023/01/24 07:10:22;;;;;;;44.50;15.15;;;;;;;3.24;72.99;95894.09;5014024;28;20029;-78
2023/01/24 07:12:48;;;;;;;34.95;12.70;;;;;;;3.41;72.65;95894.28;5029738;28;20077;-79
2023/01/24 07:15:13;;;;;;;24.25;9.38;;;;;;;3.43;72.21;95878.84;5013810;28;20132;-78
2023/01/24 07:17:39;;;;;;;10.52;5.18;;;;;;;3.54;72.38;95908.34;5026576;28;20029;-80
2023/01/24 07:20:05;;;;;;;11.15;5.10;;;;;;;3.47;72.10;95888.91;5027390;28;20087;-79
2023/01/24 07:22:31;;;;;;;8.93;5.65;;;;;;;3.43;72.16;95900.22;5046253;28;20056;-79
2023/01/24 07:24:57;;;;;;;9.25;5.28;;;;;;;3.54;72.23;95895.50;5022984;28;20164;-79
2023/01/24 07:27:23;;;;;;;7.60;5.07;;;;;;;3.43;73.22;95907.91;5039362;28;20032;-80
2023/01/24 07:29:48;;;;;;;8.15;5.15;;;;;;;3.55;72.66;95912.59;5034996;28;20154;-80
2023/01/24 07:32:14;;;;;;;7.07;4.60;;;;;;;3.61;71.87;95908.13;5022893;28;20030;-80
2023/01/24 07:34:39;;;;;;;5.93;4.00;;;;;;;3.43;71.91;95917.38;5038259;28;20414;-77
2023/01/24 07:37:08;;;;;;;8.90;4.95;;;;;;;3.21;72.47;95914.75;5040392;28;20491;-79
2023/01/24 07:39:33;;;;;;;8.77;5.97;;;;;;;3.25;73.29;95918.84;5039410;28;20036;-79
2023/01/24 07:41:59;;;;;;;77.70;42.22;;;;;;;3.34;72.68;95914.25;5032517;28;20415;-79
2023/01/24 07:44:24;;;;;;;18.08;11.52;;;;;;;3.23;73.00;95916.38;5020547;28;20034;-80
2023/01/24 07:46:50;;;;;;;9.02;5.95;;;;;;;3.47;72.77;95924.88;5030223;28;20045;-76
2023/01/24 07:49:15;;;;;;;7.78;5.13;;;;;;;3.27;73.16;95901.66;5015213;28;20116;-83
2023/01/24 07:51:41;;;;;;;6.22;4.32;;;;;;;3.32;73.38;95930.59;5038543;28;20033;-87
2023/01/24 07:54:06;;;;;;;5.30;3.67;;;;;;;3.19;72.80;95939.63;5017097;28;20059;-84
2023/01/24 07:56:32;;;;;;;5.88;3.22;;;;;;;3.25;72.21;95941.97;5032945;28;20040;-81
2023/01/24 07:58:58;;;;;;;4.57;3.20;;;;;;;2.77;72.50;95865.81;5008742;28;20021;-83
2023/01/24 08:01:24;;;;;;;4.90;3.60;;;;;;;3.21;72.48;95943.00;5021301;28;20131;-80
2023/01/24 08:03:49;;;;;;;4.80;3.45;;;;;;;2.93;71.98;95912.34;5017058;28;20040;-77
2023/01/24 08:06:15;;;;;;;4.50;3.00;;;;;;;3.25;71.91;95947.94;5036110;28;20034;-78
2023/01/24 08:08:41;;;;;;;4.93;3.63;;;;;;;3.23;72.35;95930.91;5031880;28;20029;-86
2023/01/24 08:11:06;;;;;;;5.40;4.10;;;;;;;3.12;72.42;95916.75;5013488;28;20094;-84
2023/01/24 08:13:32;;;;;;;7.63;4.45;;;;;;;3.31;71.80;95952.03;5022979;28;20017;-82
2023/01/24 08:16:00;;;;;;;7.63;4.68;;;;;;;3.31;72.01;95950.28;5035712;28;20029;-81
2023/01/24 08:18:26;;;;;;;7.22;4.68;;;;;;;3.28;72.78;95947.00;5025128;28;20021;-86
2023/01/24 08:20:55;;;;;;;5.85;4.03;;;;;;;3.16;72.82;95925.16;5024289;28;20113;-89
2023/01/24 08:23:20;;;;;;;7.75;5.57;;;;;;;2.74;73.16;95910.41;5026761;28;20516;-88
2023/01/24 08:25:46;;;;;;;26.33;22.50;;;;;;;2.87;73.62;95947.59;5028434;28;20060;-89
2023/01/24 08:28:11;;;;;;;6.55;4.18;;;;;;;2.40;74.48;95906.41;5013466;28;20025;-88
2023/01/24 08:30:37;;;;;;;4.82;3.53;;;;;;;2.78;74.39;95952.19;5009861;28;20036;-85
2023/01/24 08:33:03;;;;;;;5.57;3.80;;;;;;;2.52;74.55;95930.81;5033523;28;20088;-81
2023/01/24 08:35:29;;;;;;;7.35;4.57;;;;;;;2.55;75.04;95946.09;5028497;28;20124;-87
2023/01/24 08:37:55;;;;;;;6.57;4.40;;;;;;;2.23;76.11;95913.84;5015369;28;20512;-85
2023/01/24 08:40:20;;;;;;;9.13;5.72;;;;;;;2.51;76.38;95949.66;5033484;28;20029;-88
2023/01/24 08:42:46;;;;;;;6.80;4.63;;;;;;;1.71;77.84;95883.00;5007172;28;20414;-86
2023/01/24 08:45:11;;;;;;;6.05;4.22;;;;;;;1.70;76.81;95875.34;5037050;28;20028;-84
2023/01/24 08:47:37;;;;;;;7.15;5.15;;;;;;;1.86;78.36;95907.28;5029036;28;20095;-90
2023/01/24 08:50:02;;;;;;;7.60;5.03;;;;;;;2.12;76.97;95947.50;4996981;28;20044;-83
2023/01/24 08:52:28;;;;;;;7.30;4.63;;;;;;;1.91;77.61;95912.28;5012797;28;20029;-86
2023/01/24 08:54:53;;;;;;;9.27;6.65;;;;;;;2.26;77.72;95953.91;5030671;28;20033;-86
2023/01/24 08:57:19;;;;;;;34.70;23.60;;;;;;;2.16;77.74;95948.22;5013210;28;20403;-81
2023/01/24 08:59:44;;;;;;;30.80;20.23;;;;;;;2.32;77.80;95944.28;5032260;28;20045;-82
2023/01/24 09:02:12;;;;;;;11.90;8.07;;;;;;;2.36;77.92;95950.16;5035766;28;20037;-81
2023/01/24 09:04:38;;;;;;;9.95;5.72;;;;;;;2.28;78.24;95959.81;5017500;28;20033;-82
2023/01/24 09:07:03;;;;;;;16.63;7.32;;;;;;;2.32;77.94;95948.59;5016967;28;20079;-82
2023/01/24 09:09:29;;;;;;;9.32;5.72;;;;;;;2.05;78.13;95899.88;5028460;28;20041;-84
2023/01/24 09:11:55;;;;;;;14.32;7.47;;;;;;;2.37;78.04;95950.13;5047011;28;20025;-82
2023/01/24 09:14:23;;;;;;;10.73;6.68;;;;;;;2.07;79.21;95913.47;5049996;28;20402;-84
2023/01/24 09:16:49;;;;;;;11.05;7.32;;;;;;;2.07;77.57;95880.16;5050881;28;20033;-84
2023/01/24 09:19:14;;;;;;;11.90;6.55;;;;;;;2.27;77.65;95909.44;5017759;28;20490;-84
2023/01/24 09:21:40;;;;;;;9.07;6.90;;;;;;;2.07;78.84;95934.00;5034222;28;20094;-84
2023/01/24 09:24:06;;;;;;;17.67;7.90;;;;;;;1.73;78.67;95875.28;5052163;28;20045;-84
2023/01/24 09:26:31;;;;;;;13.07;7.18;;;;;;;2.31;79.52;95944.34;5034587;28;20119;-85
2023/01/24 09:28:56;;;;;;;10.00;5.35;;;;;;;2.40;79.49;95941.50;5034320;28;20028;-84
2023/01/24 09:31:22;;;;;;;6.15;3.65;;;;;;;2.31;79.69;95947.72;5033798;28;20525;-84
2023/01/24 09:33:48;;;;;;;6.32;4.07;;;;;;;2.34;79.17;95926.28;5018092;28;20502;-86
2023/01/24 09:36:13;;;;;;;7.10;4.72;;;;;;;2.43;79.02;95913.16;5050917;28;20051;-84
2023/01/24 09:38:39;;;;;;;5.82;3.97;;;;;;;2.15;78.58;95910.69;5034288;28;20087;-84
2023/01/24 09:41:41;;;;;;;6.78;4.60;;;;;;;2.44;78.96;95943.06;5034122;28;20079;-84
2023/01/24 09:44:18;;;;;;;4.20;3.30;;;;;;;2.54;79.25;95939.31;5052206;28;20249;-84
2023/01/24 09:46:45;;;;;;;5.22;3.55;;;;;;;2.30;79.70;95940.94;5051157;28;20104;-83
2023/01/24 09:49:40;;;;;;;5.55;3.50;;;;;;;2.00;79.62;95943.56;5019456;28;20037;-84
2023/01/24 09:52:07;;;;;;;4.40;3.35;;;;;;;2.16;81.34;95935.41;5034994;28;20479;-84
2023/01/24 09:54:53;;;;;;;4.68;2.83;;;;;;;1.89;80.54;95926.88;5036217;28;20037;-84
2023/01/24 09:57:26;;;;;;;5.63;3.97;;;;;;;1.79;81.69;95934.00;5020910;28;20128;-84
2023/01/24 09:59:53;;;;;;;5.93;4.20;;;;;;;1.90;81.90;95920.88;5036055;28;20532;-84
2023/01/24 10:02:20;;;;;;;5.10;3.30;;;;;;;2.11;81.03;95933.00;5035891;28;20036;-84
2023/01/24 10:04:47;;;;;;;4.68;2.92;;;;;;;1.79;80.98;95918.63;5035907;28;20041;-83
2023/01/24 10:07:44;;;;;;;4.25;2.85;;;;;;;1.93;81.20;95933.59;5035613;28;20036;-84
2023/01/24 10:10:28;;;;;;;6.47;3.30;;;;;;;1.84;82.08;95936.41;5052241;28;20033;-84
2023/01/24 10:13:10;;;;;;;3.85;2.42;;;;;;;1.83;81.02;95938.16;5053144;28;20072;-84
2023/01/24 10:16:02;;;;;;;4.95;2.83;;;;;;;1.66;81.74;95922.44;5051802;28;20025;-84
2023/01/24 10:18:46;;;;;;;6.15;3.20;;;;;;;1.45;82.64;95934.16;5051722;28;20067;-85
2023/01/24 10:21:21;;;;;;;4.70;3.20;;;;;;;1.62;82.87;95931.97;5053016;28;20052;-84
2023/01/24 10:23:49;;;;;;;5.30;3.38;;;;;;;1.33;82.40;95910.59;5051574;28;20461;-84
2023/01/24 10:26:42;;;;;;;4.75;3.20;;;;;;;1.47;81.98;95906.78;5035199;28;20139;-84
2023/01/24 10:29:14;;;;;;;5.47;3.03;;;;;;;1.37;83.13;95926.72;5051642;28;20060;-84
2023/01/24 10:32:15;;;;;;;5.65;3.22;;;;;;;1.39;83.24;95911.31;5034983;28;20384;-84
2023/01/24 10:34:46;;;;;;;6.05;3.80;;;;;;;1.06;83.48;95878.13;5038049;28;20147;-84
2023/01/24 10:37:23;;;;;;;4.27;2.90;;;;;;;1.23;83.40;95918.59;5035102;28;20029;-83
2023/01/24 10:39:48;;;;;;;4.43;3.10;;;;;;;1.08;83.79;95919.84;5051660;28;20041;-84
2023/01/24 10:42:24;;;;;;;4.43;2.97;;;;;;;1.16;83.65;95920.47;5034639;28;20028;-84
2023/01/24 10:44:51;;;;;;;8.38;4.65;;;;;;;1.13;83.70;95889.03;5051467;28;20033;-84
2023/01/24 10:47:59;;;;;;;4.07;2.78;;;;;;;1.37;83.80;95911.38;5034793;28;20032;-84
2023/01/24 10:50:35;;;;;;;4.97;2.30;;;;;;;1.32;83.56;95897.84;5035231;28;20475;-84
2023/01/24 10:53:27;;;;;;;3.08;2.00;;;;;;;1.36;83.76;95908.84;5035039;28;20552;-84
2023/01/24 10:55:59;;;;;;;;;;;;;;;1.24;82.92;95907.47;5049130;28;20044;-84
2023/01/24 10:58:27;;;;;;;3.05;1.90;;;;;;;1.15;83.38;95882.16;5050933;28;19925;-83
2023/01/24 11:01:00;;;;;;;7.20;3.53;;;;;;;1.21;83.53;95877.69;5052279;28;20078;-83
2023/01/24 11:03:29;;;;;;;4.53;2.00;;;;;;;1.29;83.37;95887.69;5034468;28;20036;-84
2023/01/24 11:05:57;;;;;;;13.57;6.53;;;;;;;1.42;82.76;95877.91;5050793;28;20055;-84
2023/01/24 11:08:23;;;;;;;14.68;6.07;;;;;;;1.69;82.36;95891.63;5017725;28;20124;-84
2023/01/24 11:11:01;;;;;;;4.35;3.00;;;;;;;1.51;82.52;95898.97;5050447;28;20098;-83
2023/01/24 11:13:37;;;;;;;3.65;2.08;;;;;;;1.35;81.82;95887.50;5033767;28;20036;-84
2023/01/24 11:16:22;;;;;;;3.45;1.98;;;;;;;1.35;82.69;95892.63;5034272;28;20025;-84
2023/01/24 11:18:50;;;;;;;4.97;2.65;;;;;;;1.52;82.99;95880.16;5051868;28;20525;-84
2023/01/24 11:21:16;;;;;;;3.45;2.20;;;;;;;1.49;82.62;95874.28;5050632;28;20031;-83
2023/01/24 11:23:42;;;;;;;3.60;2.50;;;;;;;1.71;82.36;95887.28;5050496;28;20032;-84
2023/01/24 11:26:24;;;;;;;3.65;2.30;;;;;;;1.75;81.65;95887.13;5049628;28;20099;-83
2023/01/24 11:29:00;;;;;;;3.00;2.10;;;;;;;1.59;81.79;95857.78;5033925;28;20383;-84
2023/01/24 11:31:35;;;;;;;4.18;2.17;;;;;;;1.68;81.64;95865.16;5034374;28;20029;-84
2023/01/24 11:34:19;;;;;;;4.30;2.97;;;;;;;1.70;81.81;95875.34;5034095;28;20040;-84
2023/01/24 11:36:51;;;;;;;4.78;3.08;;;;;;;1.66;81.99;95872.06;5050284;28;20094;-84
2023/01/24 11:39:48;;;;;;;6.05;3.30;;;;;;;1.64;82.23;95867.84;5051890;28;20036;-84
2023/01/24 11:42:38;;;;;;;6.20;2.90;;;;;;;1.44;82.95;95859.06;5036094;28;20064;-84
2023/01/24 11:45:18;;;;;;;6.03;3.22;;;;;;;1.43;83.77;95838.63;5050305;28;20516;-83
2023/01/24 11:48:12;;;;;;;7.57;3.67;;;;;;;1.64;83.41;95861.00;5050257;28;20111;-84
2023/01/24 11:51:16;;;;;;;6.63;3.63;;;;;;;1.76;83.08;95865.75;5035900;28;20028;-84
2023/01/24 11:54:07;;;;;;;7.50;3.60;;;;;;;1.83;82.31;95865.56;5047058;28;20396;-84
2023/01/24 11:56:48;;;;;;;4.63;3.25;;;;;;;1.51;83.01;95864.84;5050117;28;20025;-84
2023/01/24 11:59:48;;;;;;;5.53;3.05;;;;;;;1.57;83.23;95867.22;5050216;28;20033;-84
2023/01/24 12:02:44;;;;;;;6.22;3.60;;;;;;;1.59;83.63;95864.59;5051039;28;20025;-84
2023/01/24 12:05:28;;;;;;;5.88;3.20;;;;;;;1.45;82.82;95860.75;5050995;28;20033;-84
2023/01/24 12:08:08;;;;;;;4.97;3.00;;;;;;;1.58;83.56;95858.63;5035322;28;20060;-84
2023/01/24 12:10:47;;;;;;;5.32;2.80;;;;;;;1.46;82.66;95843.66;5049994;28;20033;-83
2023/01/24 12:13:39;;;;;;;4.72;2.63;;;;;;;1.66;82.19;95872.06;5033045;28;20076;-84
2023/01/24 12:16:13;;;;;;;5.45;3.30;;;;;;;1.58;82.88;95874.00;5033105;28;20457;-84
2023/01/24 12:18:51;;;;;;;4.30;2.50;;;;;;;1.62;82.23;95869.66;5051140;28;20037;-84
2023/01/24 12:21:16;;;;;;;5.00;2.67;;;;;;;1.48;82.61;95877.75;5049580;28;20025;-84
2023/01/24 12:23:53;;;;;;;6.45;3.20;;;;;;;1.42;83.79;95868.53;5032963;28;20056;-83
2023/01/24 12:26:25;;;;;;;7.22;3.15;;;;;;;1.47;83.25;95870.94;5049554;28;20036;-83
2023/01/24 12:28:55;;;;;;;;;;;;;;;1.56;83.25;95870.66;5033590;28;20723;-84
2023/01/24 12:31:41;;;;;;;5.05;3.47;;;;;;;1.54;83.84;95869.88;5049447;28;19912;-83